sensor_id;sensor_type;location;lat;lon;timestamp;temperature;humidity
15359;DHT22;7779;49.596;11.070;2022-11-21T00:00:50;6.50;81.10
15359;DHT22;7779;49.596;11.070;2022-11-21T00:03:18;6.50;81.00
15359;DHT22;7779;49.596;11.070;2022-11-21T00:05:45;6.50;81.00
15359;DHT22;7779;49.596;11.070;2022-11-21T00:08:18;6.50;81.10
15359;DHT22;7779;49.596;11.070;2022-11-21T00:10:46;6.50;80.70
15359;DHT22;7779;49.596;11.070;2022-11-21T00:13:15;6.60;81.20
15359;DHT22;7779;49.596;11.070;2022-11-21T00:15:45;6.60;81.80
15359;DHT22;7779;49.596;11.070;2022-11-21T00:18:12;6.60;81.10
15359;DHT22;7779;49.596;11.070;2022-11-21T00:20:39;6.60;81.10
15359;DHT22;7779;49.596;11.070;2022-11-21T00:23:05;6.60;81.20
15359;DHT22;7779;49.596;11.070;2022-11-21T00:25:32;6.60;81.20
15359;DHT22;7779;49.596;11.070;2022-11-21T00:27:57;6.60;81.10
15359;DHT22;7779;49.596;11.070;2022-11-21T00:30:23;6.60;81.10
15359;DHT22;7779;49.596;11.070;2022-11-21T00:32:49;6.60;81.20
15359;DHT22;7779;49.596;11.070;2022-11-21T00:35:14;6.70;81.20
15359;DHT22;7779;49.596;11.070;2022-11-21T00:37:40;6.60;81.10
15359;DHT22;7779;49.596;11.070;2022-11-21T00:40:06;6.60;81.10
15359;DHT22;7779;49.596;11.070;2022-11-21T00:42:32;6.60;81.10
15359;DHT22;7779;49.596;11.070;2022-11-21T00:44:58;6.60;81.00
15359;DHT22;7779;49.596;11.070;2022-11-21T00:47:24;6.60;81.00
15359;DHT22;7779;49.596;11.070;2022-11-21T00:49:50;6.60;81.00
15359;DHT22;7779;49.596;11.070;2022-11-21T00:52:16;6.60;81.00
15359;DHT22;7779;49.596;11.070;2022-11-21T00:54:42;6.60;81.00
15359;DHT22;7779;49.596;11.070;2022-11-21T00:57:08;6.60;81.10
15359;DHT22;7779;49.596;11.070;2022-11-21T00:59:34;6.60;81.10
15359;DHT22;7779;49.596;11.070;2022-11-21T01:01:59;6.60;81.20
15359;DHT22;7779;49.596;11.070;2022-11-21T01:04:29;6.60;81.30
15359;DHT22;7779;49.596;11.070;2022-11-21T01:06:55;6.70;81.40
15359;DHT22;7779;49.596;11.070;2022-11-21T01:09:20;6.70;81.40
15359;DHT22;7779;49.596;11.070;2022-11-21T01:11:46;6.70;81.50
15359;DHT22;7779;49.596;11.070;2022-11-21T01:14:12;6.70;81.60
15359;DHT22;7779;49.596;11.070;2022-11-21T01:16:38;6.70;81.50
15359;DHT22;7779;49.596;11.070;2022-11-21T01:19:03;6.70;81.60
15359;DHT22;7779;49.596;11.070;2022-11-21T01:21:30;6.70;80.90
15359;DHT22;7779;49.596;11.070;2022-11-21T01:24:00;6.80;81.60
15359;DHT22;7779;49.596;11.070;2022-11-21T01:26:28;6.80;81.70
15359;DHT22;7779;49.596;11.070;2022-11-21T01:28:56;6.80;81.70
15359;DHT22;7779;49.596;11.070;2022-11-21T01:31:25;6.80;81.70
15359;DHT22;7779;49.596;11.070;2022-11-21T01:33:53;6.80;81.70
15359;DHT22;7779;49.596;11.070;2022-11-21T01:36:28;6.80;81.70
15359;DHT22;7779;49.596;11.070;2022-11-21T01:38:58;6.90;81.80
15359;DHT22;7779;49.596;11.070;2022-11-21T01:41:28;6.90;81.70
15359;DHT22;7779;49.596;11.070;2022-11-21T01:43:58;6.90;81.20
15359;DHT22;7779;49.596;11.070;2022-11-21T01:46:25;6.90;81.60
15359;DHT22;7779;49.596;11.070;2022-11-21T01:49:04;6.90;81.60
15359;DHT22;7779;49.596;11.070;2022-11-21T01:57:24;7.00;81.80
15359;DHT22;7779;49.596;11.070;2022-11-21T01:59:57;7.00;81.50
15359;DHT22;7779;49.596;11.070;2022-11-21T02:02:28;7.00;81.80
15359;DHT22;7779;49.596;11.070;2022-11-21T02:04:59;7.00;81.80
15359;DHT22;7779;49.596;11.070;2022-11-21T02:07:27;7.00;81.80
15359;DHT22;7779;49.596;11.070;2022-11-21T02:10:00;7.00;81.80
15359;DHT22;7779;49.596;11.070;2022-11-21T02:13:12;7.10;81.80
15359;DHT22;7779;49.596;11.070;2022-11-21T02:15:27;7.10;81.80
15359;DHT22;7779;49.596;11.070;2022-11-21T02:17:54;7.10;81.80
15359;DHT22;7779;49.596;11.070;2022-11-21T02:20:23;7.10;81.80
15359;DHT22;7779;49.596;11.070;2022-11-21T02:23:22;7.20;81.80
15359;DHT22;7779;49.596;11.070;2022-11-21T02:25:52;7.20;81.80
15359;DHT22;7779;49.596;11.070;2022-11-21T02:28:20;7.20;81.70
15359;DHT22;7779;49.596;11.070;2022-11-21T02:30:49;7.20;81.60
15359;DHT22;7779;49.596;11.070;2022-11-21T02:33:15;7.20;81.60
15359;DHT22;7779;49.596;11.070;2022-11-21T02:35:41;7.20;81.40
15359;DHT22;7779;49.596;11.070;2022-11-21T02:38:20;7.20;81.40
15359;DHT22;7779;49.596;11.070;2022-11-21T02:40:52;7.20;81.40
15359;DHT22;7779;49.596;11.070;2022-11-21T02:43:28;7.20;81.30
15359;DHT22;7779;49.596;11.070;2022-11-21T02:45:59;7.20;81.30
15359;DHT22;7779;49.596;11.070;2022-11-21T02:48:25;7.20;81.30
15359;DHT22;7779;49.596;11.070;2022-11-21T02:50:51;7.30;81.40
15359;DHT22;7779;49.596;11.070;2022-11-21T02:53:17;7.20;81.30
15359;DHT22;7779;49.596;11.070;2022-11-21T02:55:44;7.20;81.40
15359;DHT22;7779;49.596;11.070;2022-11-21T02:58:11;7.30;81.40
15359;DHT22;7779;49.596;11.070;2022-11-21T03:00:38;7.30;81.40
15359;DHT22;7779;49.596;11.070;2022-11-21T03:03:05;7.30;81.40
15359;DHT22;7779;49.596;11.070;2022-11-21T03:05:31;7.30;81.40
15359;DHT22;7779;49.596;11.070;2022-11-21T03:07:57;7.30;81.40
15359;DHT22;7779;49.596;11.070;2022-11-21T03:10:23;7.30;81.30
15359;DHT22;7779;49.596;11.070;2022-11-21T03:12:49;7.30;81.30
15359;DHT22;7779;49.596;11.070;2022-11-21T03:15:15;7.30;81.30
15359;DHT22;7779;49.596;11.070;2022-11-21T03:17:41;7.30;81.30
15359;DHT22;7779;49.596;11.070;2022-11-21T03:20:08;7.30;81.20
15359;DHT22;7779;49.596;11.070;2022-11-21T03:22:34;7.30;81.20
15359;DHT22;7779;49.596;11.070;2022-11-21T03:25:00;7.30;81.20
15359;DHT22;7779;49.596;11.070;2022-11-21T03:27:26;7.30;81.20
15359;DHT22;7779;49.596;11.070;2022-11-21T03:29:51;7.20;80.60
15359;DHT22;7779;49.596;11.070;2022-11-21T03:32:17;7.30;81.20
15359;DHT22;7779;49.596;11.070;2022-11-21T03:34:43;7.30;81.10
15359;DHT22;7779;49.596;11.070;2022-11-21T03:37:09;7.30;81.10
15359;DHT22;7779;49.596;11.070;2022-11-21T03:39:35;7.20;80.60
15359;DHT22;7779;49.596;11.070;2022-11-21T03:42:01;7.30;81.10
15359;DHT22;7779;49.596;11.070;2022-11-21T03:44:28;7.30;81.00
15359;DHT22;7779;49.596;11.070;2022-11-21T03:46:54;7.30;81.00
15359;DHT22;7779;49.596;11.070;2022-11-21T03:49:19;7.20;80.40
15359;DHT22;7779;49.596;11.070;2022-11-21T03:51:45;7.30;81.00
15359;DHT22;7779;49.596;11.070;2022-11-21T03:54:11;7.20;80.90
15359;DHT22;7779;49.596;11.070;2022-11-21T03:56:37;7.20;80.90
15359;DHT22;7779;49.596;11.070;2022-11-21T03:59:06;7.20;80.90
15359;DHT22;7779;49.596;11.070;2022-11-21T04:01:32;7.20;80.90
15359;DHT22;7779;49.596;11.070;2022-11-21T04:03:58;7.20;80.80
15359;DHT22;7779;49.596;11.070;2022-11-21T04:06:24;7.20;80.80
15359;DHT22;7779;49.596;11.070;2022-11-21T04:08:50;7.20;80.80
15359;DHT22;7779;49.596;11.070;2022-11-21T04:11:16;7.20;80.30
15359;DHT22;7779;49.596;11.070;2022-11-21T04:13:43;7.20;80.90
15359;DHT22;7779;49.596;11.070;2022-11-21T04:16:09;7.20;80.90
15359;DHT22;7779;49.596;11.070;2022-11-21T04:18:35;7.20;80.90
15359;DHT22;7779;49.596;11.070;2022-11-21T04:21:04;7.20;80.40
15359;DHT22;7779;49.596;11.070;2022-11-21T04:23:31;7.20;81.00
15359;DHT22;7779;49.596;11.070;2022-11-21T04:25:57;7.20;81.00
15359;DHT22;7779;49.596;11.070;2022-11-21T04:28:23;7.20;81.00
15359;DHT22;7779;49.596;11.070;2022-11-21T04:30:49;7.20;81.10
15359;DHT22;7779;49.596;11.070;2022-11-21T04:33:15;7.20;81.10
15359;DHT22;7779;49.596;11.070;2022-11-21T04:35:43;7.20;81.10
15359;DHT22;7779;49.596;11.070;2022-11-21T04:38:10;7.20;81.20
15359;DHT22;7779;49.596;11.070;2022-11-21T04:40:36;7.20;81.80
15359;DHT22;7779;49.596;11.070;2022-11-21T04:43:02;7.20;81.20
15359;DHT22;7779;49.596;11.070;2022-11-21T04:45:28;7.20;81.20
15359;DHT22;7779;49.596;11.070;2022-11-21T04:47:54;7.20;81.10
15359;DHT22;7779;49.596;11.070;2022-11-21T04:50:20;7.20;81.20
15359;DHT22;7779;49.596;11.070;2022-11-21T04:55:20;7.20;81.20
15359;DHT22;7779;49.596;11.070;2022-11-21T04:57:49;7.20;81.30
15359;DHT22;7779;49.596;11.070;2022-11-21T05:00:16;7.20;81.30
15359;DHT22;7779;49.596;11.070;2022-11-21T05:02:43;7.20;81.30
15359;DHT22;7779;49.596;11.070;2022-11-21T05:05:10;7.20;81.30
15359;DHT22;7779;49.596;11.070;2022-11-21T05:07:36;7.20;81.30
15359;DHT22;7779;49.596;11.070;2022-11-21T05:10:04;7.20;81.30
15359;DHT22;7779;49.596;11.070;2022-11-21T05:12:30;7.20;81.30
15359;DHT22;7779;49.596;11.070;2022-11-21T05:15:14;7.20;81.20
15359;DHT22;7779;49.596;11.070;2022-11-21T05:17:40;7.20;81.20
15359;DHT22;7779;49.596;11.070;2022-11-21T05:20:06;7.20;81.10
15359;DHT22;7779;49.596;11.070;2022-11-21T05:22:33;7.20;81.20
15359;DHT22;7779;49.596;11.070;2022-11-21T05:24:58;7.20;81.20
15359;DHT22;7779;49.596;11.070;2022-11-21T05:27:24;7.20;81.20
15359;DHT22;7779;49.596;11.070;2022-11-21T05:29:50;7.20;81.20
15359;DHT22;7779;49.596;11.070;2022-11-21T05:32:16;7.20;81.20
15359;DHT22;7779;49.596;11.070;2022-11-21T05:34:41;7.20;81.80
15359;DHT22;7779;49.596;11.070;2022-11-21T05:37:07;7.20;81.10
15359;DHT22;7779;49.596;11.070;2022-11-21T05:39:33;7.20;81.10
15359;DHT22;7779;49.596;11.070;2022-11-21T05:41:58;7.20;81.10
15359;DHT22;7779;49.596;11.070;2022-11-21T05:44:24;7.20;81.00
15359;DHT22;7779;49.596;11.070;2022-11-21T05:46:50;7.20;81.00
15359;DHT22;7779;49.596;11.070;2022-11-21T05:49:16;7.20;81.00
15359;DHT22;7779;49.596;11.070;2022-11-21T05:51:42;7.20;81.00
15359;DHT22;7779;49.596;11.070;2022-11-21T05:54:14;7.20;81.00
15359;DHT22;7779;49.596;11.070;2022-11-21T05:56:40;7.20;81.00
15359;DHT22;7779;49.596;11.070;2022-11-21T05:59:07;7.20;81.00
15359;DHT22;7779;49.596;11.070;2022-11-21T06:01:35;7.20;81.00
15359;DHT22;7779;49.596;11.070;2022-11-21T06:04:19;7.20;81.00
15359;DHT22;7779;49.596;11.070;2022-11-21T06:06:45;7.20;81.00
15359;DHT22;7779;49.596;11.070;2022-11-21T06:09:11;7.20;80.40
15359;DHT22;7779;49.596;11.070;2022-11-21T06:11:37;7.30;81.00
15359;DHT22;7779;49.596;11.070;2022-11-21T06:14:02;7.30;81.00
15359;DHT22;7779;49.596;11.070;2022-11-21T06:16:28;7.30;81.00
15359;DHT22;7779;49.596;11.070;2022-11-21T06:18:54;7.30;81.00
15359;DHT22;7779;49.596;11.070;2022-11-21T06:21:22;7.30;80.20
15359;DHT22;7779;49.596;11.070;2022-11-21T06:23:51;7.30;80.90
15359;DHT22;7779;49.596;11.070;2022-11-21T06:26:21;7.30;80.80
15359;DHT22;7779;49.596;11.070;2022-11-21T06:28:49;7.30;80.80
15359;DHT22;7779;49.596;11.070;2022-11-21T06:31:17;7.30;80.70
15359;DHT22;7779;49.596;11.070;2022-11-21T06:33:45;7.30;80.70
15359;DHT22;7779;49.596;11.070;2022-11-21T06:36:15;7.30;80.80
15359;DHT22;7779;49.596;11.070;2022-11-21T06:38:42;7.30;80.70
15359;DHT22;7779;49.596;11.070;2022-11-21T06:41:16;7.30;80.60
15359;DHT22;7779;49.596;11.070;2022-11-21T06:43:46;7.30;80.50
15359;DHT22;7779;49.596;11.070;2022-11-21T06:46:13;7.30;80.60
15359;DHT22;7779;49.596;11.070;2022-11-21T06:48:40;7.30;80.50
15359;DHT22;7779;49.596;11.070;2022-11-21T06:51:19;7.30;80.50
15359;DHT22;7779;49.596;11.070;2022-11-21T06:53:51;7.30;80.50
15359;DHT22;7779;49.596;11.070;2022-11-21T06:56:24;7.30;80.50
15359;DHT22;7779;49.596;11.070;2022-11-21T06:58:52;7.30;80.50
15359;DHT22;7779;49.596;11.070;2022-11-21T07:01:18;7.30;80.50
15359;DHT22;7779;49.596;11.070;2022-11-21T07:03:44;7.30;80.50
15359;DHT22;7779;49.596;11.070;2022-11-21T07:06:10;7.30;80.50
15359;DHT22;7779;49.596;11.070;2022-11-21T07:08:37;7.30;80.50
15359;DHT22;7779;49.596;11.070;2022-11-21T07:11:10;7.30;80.50
15359;DHT22;7779;49.596;11.070;2022-11-21T07:13:38;7.20;80.40
15359;DHT22;7779;49.596;11.070;2022-11-21T07:16:06;7.20;79.90
15359;DHT22;7779;49.596;11.070;2022-11-21T07:18:35;7.20;80.60
15359;DHT22;7779;49.596;11.070;2022-11-21T07:21:03;7.30;80.80
15359;DHT22;7779;49.596;11.070;2022-11-21T07:23:30;7.30;80.80
15359;DHT22;7779;49.596;11.070;2022-11-21T07:26:02;7.30;80.90
15359;DHT22;7779;49.596;11.070;2022-11-21T07:28:30;7.20;80.10
15359;DHT22;7779;49.596;11.070;2022-11-21T07:30:58;7.30;80.90
15359;DHT22;7779;49.596;11.070;2022-11-21T07:33:26;7.30;80.90
15359;DHT22;7779;49.596;11.070;2022-11-21T07:35:55;7.30;81.00
15359;DHT22;7779;49.596;11.070;2022-11-21T07:38:23;7.30;81.00
15359;DHT22;7779;49.596;11.070;2022-11-21T07:40:49;7.40;81.00
15359;DHT22;7779;49.596;11.070;2022-11-21T07:43:16;7.30;80.90
15359;DHT22;7779;49.596;11.070;2022-11-21T07:45:42;7.40;80.90
15359;DHT22;7779;49.596;11.070;2022-11-21T07:48:08;7.40;80.90
15359;DHT22;7779;49.596;11.070;2022-11-21T07:50:35;7.40;80.90
15359;DHT22;7779;49.596;11.070;2022-11-21T07:53:04;7.40;80.90
15359;DHT22;7779;49.596;11.070;2022-11-21T07:55:31;7.40;80.90
15359;DHT22;7779;49.596;11.070;2022-11-21T07:58:03;7.40;81.00
15359;DHT22;7779;49.596;11.070;2022-11-21T08:00:33;7.40;80.30
15359;DHT22;7779;49.596;11.070;2022-11-21T08:03:01;7.50;81.10
15359;DHT22;7779;49.596;11.070;2022-11-21T08:05:29;7.50;81.20
15359;DHT22;7779;49.596;11.070;2022-11-21T08:07:55;7.50;81.20
15359;DHT22;7779;49.596;11.070;2022-11-21T08:10:21;7.60;81.40
15359;DHT22;7779;49.596;11.070;2022-11-21T08:12:47;7.60;81.50
15359;DHT22;7779;49.596;11.070;2022-11-21T08:15:13;7.60;81.50
15359;DHT22;7779;49.596;11.070;2022-11-21T08:17:39;7.70;81.60
15359;DHT22;7779;49.596;11.070;2022-11-21T08:20:06;7.70;81.60
15359;DHT22;7779;49.596;11.070;2022-11-21T08:22:40;7.70;81.70
15359;DHT22;7779;49.596;11.070;2022-11-21T08:25:08;7.80;81.60
15359;DHT22;7779;49.596;11.070;2022-11-21T08:27:36;7.80;81.70
15359;DHT22;7779;49.596;11.070;2022-11-21T08:30:08;7.90;81.80
15359;DHT22;7779;49.596;11.070;2022-11-21T08:32:35;7.90;81.60
15359;DHT22;7779;49.596;11.070;2022-11-21T08:35:01;8.00;81.40
15359;DHT22;7779;49.596;11.070;2022-11-21T08:37:27;8.00;81.20
15359;DHT22;7779;49.596;11.070;2022-11-21T08:39:54;8.00;81.00
15359;DHT22;7779;49.596;11.070;2022-11-21T08:42:23;8.10;80.90
15359;DHT22;7779;49.596;11.070;2022-11-21T08:44:50;8.10;80.90
15359;DHT22;7779;49.596;11.070;2022-11-21T08:47:15;8.10;80.90
15359;DHT22;7779;49.596;11.070;2022-11-21T08:49:41;8.10;80.80
15359;DHT22;7779;49.596;11.070;2022-11-21T08:52:07;8.10;80.80
15359;DHT22;7779;49.596;11.070;2022-11-21T08:54:32;8.20;81.00
15359;DHT22;7779;49.596;11.070;2022-11-21T08:56:58;8.20;81.10
15359;DHT22;7779;49.596;11.070;2022-11-21T08:59:24;8.30;81.00
15359;DHT22;7779;49.596;11.070;2022-11-21T09:01:49;8.30;80.60
15359;DHT22;7779;49.596;11.070;2022-11-21T09:04:17;8.30;80.20
15359;DHT22;7779;49.596;11.070;2022-11-21T09:06:43;8.30;79.90
15359;DHT22;7779;49.596;11.070;2022-11-21T09:09:09;8.30;79.70
15359;DHT22;7779;49.596;11.070;2022-11-21T09:11:35;8.30;79.70
15359;DHT22;7779;49.596;11.070;2022-11-21T09:14:02;8.30;80.00
15359;DHT22;7779;49.596;11.070;2022-11-21T09:16:47;8.40;80.40
15359;DHT22;7779;49.596;11.070;2022-11-21T09:19:31;8.40;80.60
15359;DHT22;7779;49.596;11.070;2022-11-21T09:21:58;8.40;80.70
15359;DHT22;7779;49.596;11.070;2022-11-21T09:24:23;8.50;80.80
15359;DHT22;7779;49.596;11.070;2022-11-21T09:26:49;8.50;80.60
15359;DHT22;7779;49.596;11.070;2022-11-21T09:29:15;8.60;80.70
15359;DHT22;7779;49.596;11.070;2022-11-21T09:31:41;8.60;80.80
15359;DHT22;7779;49.596;11.070;2022-11-21T09:34:08;8.70;80.70
15359;DHT22;7779;49.596;11.070;2022-11-21T09:36:33;8.70;80.60
15359;DHT22;7779;49.596;11.070;2022-11-21T09:38:59;8.80;80.60
15359;DHT22;7779;49.596;11.070;2022-11-21T09:41:50;8.80;79.50
15359;DHT22;7779;49.596;11.070;2022-11-21T09:44:39;8.80;79.60
15359;DHT22;7779;49.596;11.070;2022-11-21T09:47:19;8.90;79.50
15359;DHT22;7779;49.596;11.070;2022-11-21T09:52:36;9.00;80.20
15359;DHT22;7779;49.596;11.070;2022-11-21T10:01:21;9.20;78.40
15359;DHT22;7779;49.596;11.070;2022-11-21T10:03:49;9.20;80.50
15359;DHT22;7779;49.596;11.070;2022-11-21T10:06:30;9.30;80.30
15359;DHT22;7779;49.596;11.070;2022-11-21T10:27:01;9.60;77.60
15359;DHT22;7779;49.596;11.070;2022-11-21T10:29:52;9.60;77.60
15359;DHT22;7779;49.596;11.070;2022-11-21T10:32:53;9.60;79.00
15359;DHT22;7779;49.596;11.070;2022-11-21T10:35:25;9.70;79.20
15359;DHT22;7779;49.596;11.070;2022-11-21T10:38:02;9.70;79.10
15359;DHT22;7779;49.596;11.070;2022-11-21T10:40:44;9.70;76.00
15359;DHT22;7779;49.596;11.070;2022-11-21T10:46:27;9.80;78.00
15359;DHT22;7779;49.596;11.070;2022-11-21T10:49:03;9.80;78.50
15359;DHT22;7779;49.596;11.070;2022-11-21T10:54:16;9.80;77.60
15359;DHT22;7779;49.596;11.070;2022-11-21T10:57:01;9.80;78.20
15359;DHT22;7779;49.596;11.070;2022-11-21T10:59:35;9.90;78.00
15359;DHT22;7779;49.596;11.070;2022-11-21T11:04:38;9.90;78.20
15359;DHT22;7779;49.596;11.070;2022-11-21T11:07:23;9.90;78.20
15359;DHT22;7779;49.596;11.070;2022-11-21T11:10:14;9.90;76.80
15359;DHT22;7779;49.596;11.070;2022-11-21T11:12:48;9.90;76.10
15359;DHT22;7779;49.596;11.070;2022-11-21T11:15:34;9.90;77.40
15359;DHT22;7779;49.596;11.070;2022-11-21T11:18:04;9.90;77.10
15359;DHT22;7779;49.596;11.070;2022-11-21T11:20:38;9.90;77.10
15359;DHT22;7779;49.596;11.070;2022-11-21T11:25:56;9.80;76.30
15359;DHT22;7779;49.596;11.070;2022-11-21T11:28:34;9.80;76.50
15359;DHT22;7779;49.596;11.070;2022-11-21T11:31:01;9.80;76.10
15359;DHT22;7779;49.596;11.070;2022-11-21T11:33:33;9.80;76.80
15359;DHT22;7779;49.596;11.070;2022-11-21T11:38:57;9.80;76.90
15359;DHT22;7779;49.596;11.070;2022-11-21T11:41:55;9.80;76.80
15359;DHT22;7779;49.596;11.070;2022-11-21T11:47:59;9.80;76.40
15359;DHT22;7779;49.596;11.070;2022-11-21T11:53:18;9.80;76.80
15359;DHT22;7779;49.596;11.070;2022-11-21T11:55:52;9.80;77.00
15359;DHT22;7779;49.596;11.070;2022-11-21T11:58:32;9.80;77.10
15359;DHT22;7779;49.596;11.070;2022-11-21T12:01:20;9.80;75.00
15359;DHT22;7779;49.596;11.070;2022-11-21T12:04:21;9.80;76.70
15359;DHT22;7779;49.596;11.070;2022-11-21T12:07:11;9.80;76.00
15359;DHT22;7779;49.596;11.070;2022-11-21T12:13:09;9.80;75.70
15359;DHT22;7779;49.596;11.070;2022-11-21T12:15:42;9.70;76.00
15359;DHT22;7779;49.596;11.070;2022-11-21T12:21:14;9.70;76.40
15359;DHT22;7779;49.596;11.070;2022-11-21T12:23:53;9.60;76.50
15359;DHT22;7779;49.596;11.070;2022-11-21T12:48:14;9.30;76.30
15359;DHT22;7779;49.596;11.070;2022-11-21T12:57:13;9.40;76.00
15359;DHT22;7779;49.596;11.070;2022-11-21T12:59:58;9.50;77.40
15359;DHT22;7779;49.596;11.070;2022-11-21T13:05:50;9.60;75.30
15359;DHT22;7779;49.596;11.070;2022-11-21T13:08:25;9.70;76.50
15359;DHT22;7779;49.596;11.070;2022-11-21T13:17:47;9.70;74.60
15359;DHT22;7779;49.596;11.070;2022-11-21T13:20:23;9.70;75.30
15359;DHT22;7779;49.596;11.070;2022-11-21T13:22:55;9.70;75.20
15359;DHT22;7779;49.596;11.070;2022-11-21T13:30:54;9.80;74.60
15359;DHT22;7779;49.596;11.070;2022-11-21T13:36:05;9.90;75.50
15359;DHT22;7779;49.596;11.070;2022-11-21T13:47:02;9.90;73.30
15359;DHT22;7779;49.596;11.070;2022-11-21T13:49:43;9.80;73.90
15359;DHT22;7779;49.596;11.070;2022-11-21T13:55:38;9.80;73.80
15359;DHT22;7779;49.596;11.070;2022-11-21T13:58:58;9.80;72.80
15359;DHT22;7779;49.596;11.070;2022-11-21T14:01:08;9.70;71.20
15359;DHT22;7779;49.596;11.070;2022-11-21T14:06:43;9.60;72.00
15359;DHT22;7779;49.596;11.070;2022-11-21T14:09:17;9.60;73.10
15359;DHT22;7779;49.596;11.070;2022-11-21T14:11:48;9.50;72.80
15359;DHT22;7779;49.596;11.070;2022-11-21T14:14:39;9.50;72.90
15359;DHT22;7779;49.596;11.070;2022-11-21T14:17:50;9.40;71.60
15359;DHT22;7779;49.596;11.070;2022-11-21T14:20:48;9.40;71.30
15359;DHT22;7779;49.596;11.070;2022-11-21T14:23:19;9.30;71.30
15359;DHT22;7779;49.596;11.070;2022-11-21T14:25:50;9.20;72.50
15359;DHT22;7779;49.596;11.070;2022-11-21T14:28:37;9.20;72.60
15359;DHT22;7779;49.596;11.070;2022-11-21T14:31:08;9.10;72.50
15359;DHT22;7779;49.596;11.070;2022-11-21T14:33:42;9.00;72.30
15359;DHT22;7779;49.596;11.070;2022-11-21T14:36:20;9.00;72.30
15359;DHT22;7779;49.596;11.070;2022-11-21T14:38:55;8.90;72.20
15359;DHT22;7779;49.596;11.070;2022-11-21T14:41:27;8.80;71.00
15359;DHT22;7779;49.596;11.070;2022-11-21T14:46:26;8.70;72.10
15359;DHT22;7779;49.596;11.070;2022-11-21T14:48:55;8.70;72.30
15359;DHT22;7779;49.596;11.070;2022-11-21T14:51:25;8.60;72.20
15359;DHT22;7779;49.596;11.070;2022-11-21T14:53:52;8.50;72.00
15359;DHT22;7779;49.596;11.070;2022-11-21T14:56:24;8.50;72.10
15359;DHT22;7779;49.596;11.070;2022-11-21T14:58:52;8.40;72.00
15359;DHT22;7779;49.596;11.070;2022-11-21T15:03:58;8.30;72.00
15359;DHT22;7779;49.596;11.070;2022-11-21T15:06:39;8.20;71.80
15359;DHT22;7779;49.596;11.070;2022-11-21T15:09:11;8.10;71.80
15359;DHT22;7779;49.596;11.070;2022-11-21T15:12:01;8.10;72.00
15359;DHT22;7779;49.596;11.070;2022-11-21T15:14:35;8.00;71.90
15359;DHT22;7779;49.596;11.070;2022-11-21T15:17:09;7.90;72.00
15359;DHT22;7779;49.596;11.070;2022-11-21T15:19:40;7.80;72.00
15359;DHT22;7779;49.596;11.070;2022-11-21T15:22:27;7.70;71.90
15359;DHT22;7779;49.596;11.070;2022-11-21T15:25:19;7.60;71.90
15359;DHT22;7779;49.596;11.070;2022-11-21T15:27:51;7.50;72.00
15359;DHT22;7779;49.596;11.070;2022-11-21T15:30:32;7.40;72.00
15359;DHT22;7779;49.596;11.070;2022-11-21T15:33:06;7.20;71.60
15359;DHT22;7779;49.596;11.070;2022-11-21T15:38:28;7.10;72.40
15359;DHT22;7779;49.596;11.070;2022-11-21T15:46:30;6.80;72.40
15359;DHT22;7779;49.596;11.070;2022-11-21T15:48:59;6.70;72.50
15359;DHT22;7779;49.596;11.070;2022-11-21T15:51:38;6.60;72.00
15359;DHT22;7779;49.596;11.070;2022-11-21T15:54:06;6.50;72.40
15359;DHT22;7779;49.596;11.070;2022-11-21T15:56:35;6.40;72.40
15359;DHT22;7779;49.596;11.070;2022-11-21T15:59:00;6.30;72.30
15359;DHT22;7779;49.596;11.070;2022-11-21T16:01:28;6.20;72.20
15359;DHT22;7779;49.596;11.070;2022-11-21T16:03:56;6.10;72.30
15359;DHT22;7779;49.596;11.070;2022-11-21T16:06:23;6.00;72.30
15359;DHT22;7779;49.596;11.070;2022-11-21T16:08:49;5.90;72.40
15359;DHT22;7779;49.596;11.070;2022-11-21T16:11:19;5.80;72.50
15359;DHT22;7779;49.596;11.070;2022-11-21T16:13:52;5.70;72.60
15359;DHT22;7779;49.596;11.070;2022-11-21T16:16:22;5.70;72.80
15359;DHT22;7779;49.596;11.070;2022-11-21T16:18:48;5.60;72.80
15359;DHT22;7779;49.596;11.070;2022-11-21T16:21:15;5.50;72.90
15359;DHT22;7779;49.596;11.070;2022-11-21T16:23:41;5.40;72.90
15359;DHT22;7779;49.596;11.070;2022-11-21T16:26:08;5.30;73.00
15359;DHT22;7779;49.596;11.070;2022-11-21T16:28:34;5.20;73.20
15359;DHT22;7779;49.596;11.070;2022-11-21T16:31:01;5.20;72.80
15359;DHT22;7779;49.596;11.070;2022-11-21T16:33:28;5.10;73.30
15359;DHT22;7779;49.596;11.070;2022-11-21T16:35:54;5.00;73.40
15359;DHT22;7779;49.596;11.070;2022-11-21T16:38:26;5.00;73.50
15359;DHT22;7779;49.596;11.070;2022-11-21T16:40:58;4.90;73.70
15359;DHT22;7779;49.596;11.070;2022-11-21T16:43:26;4.80;73.70
15359;DHT22;7779;49.596;11.070;2022-11-21T16:45:53;4.80;73.70
15359;DHT22;7779;49.596;11.070;2022-11-21T16:48:20;4.70;73.70
15359;DHT22;7779;49.596;11.070;2022-11-21T16:50:48;4.70;73.80
15359;DHT22;7779;49.596;11.070;2022-11-21T16:53:14;4.60;73.80
15359;DHT22;7779;49.596;11.070;2022-11-21T16:55:41;4.60;74.00
15359;DHT22;7779;49.596;11.070;2022-11-21T16:58:07;4.50;74.00
15359;DHT22;7779;49.596;11.070;2022-11-21T17:00:33;4.40;74.60
15359;DHT22;7779;49.596;11.070;2022-11-21T17:02:59;4.40;74.40
15359;DHT22;7779;49.596;11.070;2022-11-21T17:05:25;4.40;74.60
15359;DHT22;7779;49.596;11.070;2022-11-21T17:07:51;4.40;74.70
15359;DHT22;7779;49.596;11.070;2022-11-21T17:10:17;4.30;74.70
15359;DHT22;7779;49.596;11.070;2022-11-21T17:12:43;4.30;74.90
15359;DHT22;7779;49.596;11.070;2022-11-21T17:15:12;4.30;75.00
15359;DHT22;7779;49.596;11.070;2022-11-21T17:17:39;4.20;75.10
15359;DHT22;7779;49.596;11.070;2022-11-21T17:20:07;4.20;75.20
15359;DHT22;7779;49.596;11.070;2022-11-21T17:22:34;4.20;75.40
15359;DHT22;7779;49.596;11.070;2022-11-21T17:25:00;4.20;75.50
15359;DHT22;7779;49.596;11.070;2022-11-21T17:27:26;4.20;75.60
15359;DHT22;7779;49.596;11.070;2022-11-21T17:29:51;4.20;75.70
15359;DHT22;7779;49.596;11.070;2022-11-21T17:32:17;4.10;75.70
15359;DHT22;7779;49.596;11.070;2022-11-21T17:34:43;4.10;75.80
15359;DHT22;7779;49.596;11.070;2022-11-21T17:37:09;4.10;75.80
15359;DHT22;7779;49.596;11.070;2022-11-21T17:39:35;4.10;75.90
15359;DHT22;7779;49.596;11.070;2022-11-21T17:42:01;4.10;76.10
15359;DHT22;7779;49.596;11.070;2022-11-21T17:44:27;4.10;76.10
15359;DHT22;7779;49.596;11.070;2022-11-21T17:46:53;4.10;76.20
15359;DHT22;7779;49.596;11.070;2022-11-21T17:49:19;4.00;76.00
15359;DHT22;7779;49.596;11.070;2022-11-21T17:51:46;4.00;76.30
15359;DHT22;7779;49.596;11.070;2022-11-21T17:54:11;4.10;76.40
15359;DHT22;7779;49.596;11.070;2022-11-21T17:56:38;4.00;76.40
15359;DHT22;7779;49.596;11.070;2022-11-21T17:59:05;4.10;76.50
15359;DHT22;7779;49.596;11.070;2022-11-21T18:01:32;4.10;76.50
15359;DHT22;7779;49.596;11.070;2022-11-21T18:04:05;4.00;77.00
15359;DHT22;7779;49.596;11.070;2022-11-21T18:06:38;4.00;76.40
15359;DHT22;7779;49.596;11.070;2022-11-21T18:09:05;4.00;76.40
15359;DHT22;7779;49.596;11.070;2022-11-21T18:11:34;4.00;76.20
15359;DHT22;7779;49.596;11.070;2022-11-21T18:14:01;4.00;76.30
15359;DHT22;7779;49.596;11.070;2022-11-21T18:16:29;4.00;76.20
15359;DHT22;7779;49.596;11.070;2022-11-21T18:18:56;4.00;76.20